createdAt,value
2023-03-19T00:02:17.466Z,3.10
2023-03-19T00:04:46.862Z,3.11
2023-03-19T00:07:16.072Z,3.12
2023-03-19T00:09:44.758Z,3.08
2023-03-19T00:12:13.346Z,3.08
2023-03-19T00:14:42.234Z,3.08
2023-03-19T00:17:11.840Z,3.07
2023-03-19T00:19:39.900Z,3.05
2023-03-19T00:22:08.835Z,3.02
2023-03-19T00:24:37.915Z,3.00
2023-03-19T00:27:06.854Z,2.98
2023-03-19T00:29:36.624Z,2.98
2023-03-19T00:32:05.828Z,2.98
2023-03-19T00:34:34.017Z,2.98
2023-03-19T00:37:02.180Z,2.99
2023-03-19T00:39:31.091Z,3.01
2023-03-19T00:41:59.360Z,3.04
2023-03-19T00:44:28.018Z,3.07
2023-03-19T00:46:56.367Z,3.07
2023-03-19T00:49:24.919Z,3.08
2023-03-19T00:51:55.144Z,3.09
2023-03-19T00:54:23.306Z,3.10
2023-03-19T00:56:51.451Z,3.13
2023-03-19T00:59:19.901Z,3.13
2023-03-19T01:01:48.123Z,3.15
2023-03-19T01:04:17.886Z,3.18
2023-03-19T01:06:46.460Z,3.20
2023-03-19T01:09:15.257Z,3.23
2023-03-19T01:11:43.845Z,3.26
2023-03-19T01:14:21.352Z,3.30
2023-03-19T01:16:49.567Z,3.35
2023-03-19T01:19:20.189Z,3.34
2023-03-19T01:21:49.758Z,3.32
2023-03-19T01:24:21.830Z,3.27
2023-03-19T01:26:54.193Z,3.22
2023-03-19T01:29:37.113Z,3.21
2023-03-19T01:32:13.683Z,3.18
2023-03-19T01:35:05.403Z,3.17
2023-03-19T01:37:39.931Z,3.21
2023-03-19T01:40:11.434Z,3.22
2023-03-19T01:43:08.003Z,3.19
2023-03-19T01:45:44.912Z,3.19
2023-03-19T01:49:00.038Z,3.13
2023-03-19T01:51:30.396Z,3.08
2023-03-19T01:54:06.606Z,3.03
2023-03-19T01:57:00.705Z,3.00
2023-03-19T01:59:51.619Z,3.00
2023-03-19T02:02:39.911Z,2.97
2023-03-19T02:05:25.791Z,2.95
2023-03-19T02:08:05.382Z,2.95
2023-03-19T02:10:34.493Z,2.94
2023-03-19T02:13:02.746Z,2.92
2023-03-19T02:15:31.104Z,2.91
2023-03-19T02:18:00.115Z,2.91
2023-03-19T02:20:34.551Z,2.90
2023-03-19T02:23:15.716Z,2.89
2023-03-19T02:25:46.292Z,2.89
2023-03-19T02:28:16.613Z,2.87
2023-03-19T02:30:45.269Z,2.86
2023-03-19T02:33:14.142Z,2.86
2023-03-19T02:35:49.391Z,2.86
2023-03-19T02:38:22.512Z,2.88
2023-03-19T02:41:07.535Z,2.90
2023-03-19T02:43:38.475Z,2.95
2023-03-19T02:46:11.993Z,2.98
2023-03-19T02:48:42.412Z,2.97
2023-03-19T02:51:10.583Z,2.96
2023-03-19T02:53:43.170Z,2.96
2023-03-19T02:56:13.088Z,2.97
2023-03-19T02:58:41.303Z,2.99
2023-03-19T03:01:09.468Z,3.00
2023-03-19T03:03:38.280Z,3.00
2023-03-19T03:06:07.331Z,2.97
2023-03-19T03:08:36.856Z,2.93
2023-03-19T03:11:05.125Z,2.92
2023-03-19T03:13:34.421Z,2.91
2023-03-19T03:16:03.862Z,2.92
2023-03-19T03:18:33.050Z,2.92
2023-03-19T03:21:06.543Z,2.94
2023-03-19T03:23:36.803Z,2.94
2023-03-19T03:26:06.890Z,2.93
2023-03-19T03:28:36.410Z,2.89
2023-03-19T03:31:04.831Z,2.87
2023-03-19T03:33:33.372Z,2.83
2023-03-19T03:36:02.377Z,2.81
2023-03-19T03:38:32.758Z,2.85
2023-03-19T03:41:00.972Z,2.85
2023-03-19T03:43:31.200Z,2.86
2023-03-19T03:45:59.843Z,2.86
2023-03-19T03:48:28.637Z,2.87
2023-03-19T03:50:57.071Z,2.88
2023-03-19T03:53:29.170Z,2.88
2023-03-19T03:55:58.151Z,2.88
2023-03-19T03:58:27.204Z,2.89
2023-03-19T04:00:55.715Z,2.93
2023-03-19T04:03:24.820Z,2.95
2023-03-19T04:05:53.310Z,2.97
2023-03-19T04:08:23.749Z,2.96
2023-03-19T04:10:52.223Z,2.98
2023-03-19T04:13:20.444Z,3.00
2023-03-19T04:15:50.740Z,3.00
2023-03-19T04:18:20.030Z,2.98
2023-03-19T04:20:48.963Z,3.01
2023-03-19T04:23:17.218Z,3.03
2023-03-19T04:25:46.838Z,3.05
2023-03-19T04:28:20.341Z,3.06
2023-03-19T04:30:48.965Z,3.06
2023-03-19T04:33:18.566Z,3.07
2023-03-19T04:35:47.621Z,3.06
2023-03-19T04:38:16.868Z,3.03
2023-03-19T04:40:48.787Z,3.02
2023-03-19T04:43:17.688Z,3.00
2023-03-19T04:45:46.508Z,2.94
2023-03-19T04:48:16.109Z,2.95
2023-03-19T04:50:47.301Z,2.95
2023-03-19T04:53:20.469Z,2.97
2023-03-19T04:55:48.710Z,2.98
2023-03-19T04:58:21.535Z,3.03
2023-03-19T05:00:56.320Z,3.06
2023-03-19T05:03:31.932Z,3.05
2023-03-19T05:06:07.203Z,3.07
2023-03-19T05:08:36.849Z,3.08
2023-03-19T05:11:05.377Z,3.13
2023-03-19T05:13:41.461Z,3.15
2023-03-19T05:16:11.630Z,3.16
2023-03-19T05:18:41.314Z,3.19
2023-03-19T05:21:13.878Z,3.19
2023-03-19T05:23:42.774Z,3.21
2023-03-19T05:26:11.970Z,3.21
2023-03-19T05:28:58.798Z,3.21
2023-03-19T05:31:34.967Z,3.19
2023-03-19T05:34:04.507Z,3.19
2023-03-19T05:36:33.489Z,3.19
2023-03-19T05:39:14.834Z,3.19
2023-03-19T05:41:45.866Z,3.18
2023-03-19T05:44:18.239Z,3.18
2023-03-19T05:46:50.243Z,3.17
2023-03-19T05:49:19.407Z,3.16
2023-03-19T05:51:48.395Z,3.17
2023-03-19T05:54:16.990Z,3.21
2023-03-19T05:57:08.295Z,3.23
2023-03-19T05:59:43.025Z,3.25
2023-03-19T06:02:30.075Z,3.26
2023-03-19T06:05:10.696Z,3.26
2023-03-19T06:07:39.722Z,3.26
2023-03-19T06:10:12.271Z,3.25
2023-03-19T06:12:42.236Z,3.27
2023-03-19T06:15:30.745Z,3.30
2023-03-19T06:18:28.586Z,3.36
2023-03-19T06:21:06.591Z,3.40
2023-03-19T06:23:36.160Z,3.44
2023-03-19T06:26:07.986Z,3.47
2023-03-19T06:28:44.739Z,3.47
2023-03-19T06:31:13.543Z,3.47
2023-03-19T06:33:57.625Z,3.53
2023-03-19T06:36:30.699Z,3.55
2023-03-19T06:38:59.146Z,3.58
2023-03-19T06:41:27.484Z,3.57
2023-03-19T06:43:59.716Z,3.58
2023-03-19T06:46:28.087Z,3.63
2023-03-19T06:48:57.312Z,3.66
2023-03-19T06:51:28.958Z,3.68
2023-03-19T06:53:57.341Z,3.71
2023-03-19T06:56:26.327Z,3.73
2023-03-19T06:58:56.649Z,3.77
2023-03-19T07:01:25.485Z,3.85
2023-03-19T07:03:53.706Z,3.87
2023-03-19T07:06:24.054Z,3.89
2023-03-19T07:08:52.329Z,3.95
2023-03-19T07:11:20.929Z,3.97
2023-03-19T07:13:52.581Z,3.99
2023-03-19T07:16:21.175Z,4.02
2023-03-19T07:18:54.777Z,4.03
2023-03-19T07:21:23.462Z,4.05
2023-03-19T07:23:52.192Z,4.09
2023-03-19T07:26:21.158Z,4.12
2023-03-19T07:28:49.415Z,4.15
2023-03-19T07:31:17.850Z,4.19
2023-03-19T07:33:51.517Z,4.24
2023-03-19T07:36:19.801Z,4.25
2023-03-19T07:38:48.181Z,4.29
2023-03-19T07:41:16.362Z,4.37
2023-03-19T07:43:44.853Z,4.44
2023-03-19T07:46:18.321Z,4.50
2023-03-19T07:48:46.728Z,4.56
2023-03-19T07:51:14.976Z,4.61
2023-03-19T07:53:46.872Z,4.66
2023-03-19T07:56:15.256Z,4.65
2023-03-19T07:58:43.635Z,4.62
2023-03-19T08:01:12.329Z,4.61
2023-03-19T08:03:40.504Z,4.60
2023-03-19T08:06:08.671Z,4.60
2023-03-19T08:08:38.402Z,4.65
2023-03-19T08:11:07.845Z,4.73
2023-03-19T08:13:36.289Z,4.76
2023-03-19T08:16:06.423Z,4.75
2023-03-19T08:18:36.740Z,4.78
2023-03-19T08:21:05.287Z,4.87
2023-03-19T08:23:36.178Z,4.95
2023-03-19T08:26:04.556Z,4.96
2023-03-19T08:28:34.058Z,5.04
2023-03-19T08:31:13.327Z,5.13
2023-03-19T08:33:41.772Z,5.25
2023-03-19T08:36:12.610Z,5.45
2023-03-19T08:38:43.863Z,5.59
2023-03-19T08:41:12.561Z,5.69
2023-03-19T08:43:41.146Z,5.80
2023-03-19T08:46:09.513Z,5.95
2023-03-19T08:48:41.366Z,6.05
2023-03-19T08:51:12.957Z,6.10
2023-03-19T08:53:41.572Z,6.09
2023-03-19T08:56:09.816Z,6.02
2023-03-19T08:58:42.905Z,5.98
2023-03-19T09:01:12.934Z,6.06
2023-03-19T09:03:42.121Z,6.08
2023-03-19T09:06:10.920Z,6.08
2023-03-19T09:08:58.748Z,6.07
2023-03-19T09:11:27.504Z,6.11
2023-03-19T09:13:57.378Z,6.15
2023-03-19T09:16:26.496Z,6.14
2023-03-19T09:19:02.451Z,6.16
2023-03-19T09:21:31.748Z,6.22
2023-03-19T09:23:59.994Z,6.26
2023-03-19T09:26:28.375Z,6.32
2023-03-19T09:28:56.608Z,6.43
2023-03-19T09:31:29.800Z,6.50
2023-03-19T09:33:58.447Z,6.48
2023-03-19T09:36:26.681Z,6.50
2023-03-19T09:38:55.207Z,6.48
2023-03-19T09:41:32.394Z,6.47
2023-03-19T09:44:04.558Z,6.51
2023-03-19T09:47:03.992Z,6.45
2023-03-19T09:49:38.798Z,6.58
2023-03-19T09:52:29.164Z,6.80
2023-03-19T09:54:59.211Z,6.87
2023-03-19T09:57:29.976Z,6.97
2023-03-19T09:59:58.209Z,7.03
2023-03-19T10:02:43.231Z,7.17
2023-03-19T10:05:23.263Z,7.31
2023-03-19T10:08:36.770Z,7.37
2023-03-19T10:11:17.185Z,7.42
2023-03-19T10:13:45.541Z,7.49
2023-03-19T10:16:25.498Z,7.53
2023-03-19T10:18:57.198Z,7.52
2023-03-19T10:21:42.289Z,7.43
2023-03-19T10:24:10.832Z,7.36
2023-03-19T10:26:39.012Z,7.33
2023-03-19T10:29:10.255Z,7.35
2023-03-19T10:31:48.194Z,7.36
2023-03-19T10:34:33.155Z,7.28
2023-03-19T10:37:04.004Z,7.24
2023-03-19T10:39:36.436Z,7.19
2023-03-19T10:42:33.479Z,7.21
2023-03-19T10:45:14.034Z,7.18
2023-03-19T10:47:42.723Z,7.19
2023-03-19T10:50:19.020Z,7.30
2023-03-19T10:52:51.817Z,7.39
2023-03-19T10:55:26.906Z,7.36
2023-03-19T10:58:07.374Z,7.32
2023-03-19T11:00:37.536Z,7.31
2023-03-19T11:03:28.944Z,7.30
2023-03-19T11:06:18.700Z,7.26
2023-03-19T11:08:55.798Z,7.28
2023-03-19T11:11:34.871Z,7.28
2023-03-19T11:14:16.342Z,7.30
2023-03-19T11:16:52.266Z,7.26
2023-03-19T11:19:23.467Z,7.18
2023-03-19T11:22:21.184Z,7.22
2023-03-19T11:24:52.740Z,7.34
2023-03-19T11:27:31.632Z,7.43
2023-03-19T11:30:13.559Z,7.43
2023-03-19T11:33:14.169Z,7.46
2023-03-19T11:35:47.919Z,7.46
2023-03-19T11:38:31.129Z,7.44
2023-03-19T11:41:22.739Z,7.45
2023-03-19T11:43:57.820Z,7.45
2023-03-19T11:46:54.811Z,7.38
2023-03-19T11:49:36.709Z,7.30
2023-03-19T11:52:04.884Z,7.27
2023-03-19T11:54:45.143Z,7.24
2023-03-19T11:57:38.329Z,7.29
2023-03-19T12:00:22.650Z,7.28
2023-03-19T12:03:09.812Z,7.21
2023-03-19T12:05:48.974Z,7.23
2023-03-19T12:08:42.231Z,7.31
2023-03-19T12:11:18.438Z,7.25
2023-03-19T12:14:08.336Z,7.19
2023-03-19T12:17:05.091Z,7.08
2023-03-19T12:19:34.032Z,7.05
2023-03-19T12:22:33.020Z,6.96
2023-03-19T12:25:23.358Z,6.99
2023-03-19T12:28:03.508Z,6.98
2023-03-19T12:30:42.855Z,6.96
2023-03-19T12:33:30.589Z,6.93
2023-03-19T12:35:58.797Z,6.86
2023-03-19T12:38:40.119Z,6.86
2023-03-19T12:41:23.443Z,6.84
2023-03-19T12:43:57.671Z,6.83
2023-03-19T12:46:33.452Z,6.79
2023-03-19T12:49:01.843Z,6.78
2023-03-19T12:51:36.331Z,6.78
2023-03-19T12:54:21.628Z,6.79
2023-03-19T12:56:55.771Z,6.81
2023-03-19T12:59:29.809Z,6.79
2023-03-19T13:02:26.026Z,6.70
2023-03-19T13:05:27.873Z,6.69
2023-03-19T13:08:06.078Z,6.67
2023-03-19T13:10:34.700Z,6.69
2023-03-19T13:13:38.869Z,6.70
2023-03-19T13:16:15.423Z,6.64
2023-03-19T13:18:48.327Z,6.58
2023-03-19T13:21:24.936Z,6.54
2023-03-19T13:24:00.035Z,6.54
2023-03-19T13:26:33.338Z,6.58
2023-03-19T13:29:22.875Z,6.53
2023-03-19T13:32:05.175Z,6.50
2023-03-19T13:34:37.673Z,6.53
2023-03-19T13:37:16.093Z,6.54
2023-03-19T13:39:46.468Z,6.52
2023-03-19T13:42:39.249Z,6.49
2023-03-19T13:45:35.490Z,6.46
2023-03-19T13:48:29.334Z,6.44
2023-03-19T13:51:03.082Z,6.44
2023-03-19T13:53:32.592Z,6.46
2023-03-19T13:56:05.764Z,6.44
2023-03-19T13:58:52.262Z,6.40
2023-03-19T14:01:26.116Z,6.35
2023-03-19T14:04:15.961Z,6.34
2023-03-19T14:06:47.105Z,6.33
2023-03-19T14:09:46.451Z,6.28
2023-03-19T14:12:15.767Z,6.22
2023-03-19T14:15:03.192Z,6.23
2023-03-19T14:17:37.757Z,6.21
2023-03-19T14:20:12.796Z,6.15
2023-03-19T14:23:11.681Z,6.11
2023-03-19T14:26:06.621Z,6.09
2023-03-19T14:28:44.793Z,6.08
2023-03-19T14:31:49.752Z,6.08
2023-03-19T14:34:22.451Z,6.05
2023-03-19T14:37:18.815Z,6.01
2023-03-19T14:39:50.902Z,5.99
2023-03-19T14:42:30.687Z,5.99
2023-03-19T14:45:07.928Z,6.00
2023-03-19T14:47:52.911Z,6.01
2023-03-19T14:51:02.926Z,5.98
2023-03-19T14:53:37.971Z,6.02
2023-03-19T14:56:19.522Z,6.04
2023-03-19T14:58:52.820Z,6.01
2023-03-19T15:01:21.866Z,5.97
2023-03-19T15:03:57.697Z,5.94
2023-03-19T15:06:29.926Z,5.92
2023-03-19T15:09:01.259Z,5.88
2023-03-19T15:12:08.258Z,5.85
2023-03-19T15:15:02.239Z,5.81
2023-03-19T15:17:32.778Z,5.76
2023-03-19T15:20:01.924Z,5.72
2023-03-19T15:22:34.082Z,5.69
2023-03-19T15:25:10.657Z,5.66
2023-03-19T15:27:38.919Z,5.63
2023-03-19T15:30:30.507Z,5.62
2023-03-19T15:33:12.180Z,5.59
2023-03-19T15:35:44.471Z,5.58
2023-03-19T15:38:13.876Z,5.54
2023-03-19T15:40:42.153Z,5.50
2023-03-19T15:43:12.988Z,5.48
2023-03-19T15:45:45.491Z,5.48
2023-03-19T15:48:42.206Z,5.48
2023-03-19T15:51:11.202Z,5.49
2023-03-19T15:53:39.372Z,5.51
2023-03-19T15:56:08.474Z,5.51
2023-03-19T15:58:43.112Z,5.52
2023-03-19T16:01:13.354Z,5.50
2023-03-19T16:03:43.295Z,5.47
2023-03-19T16:06:21.565Z,5.45
2023-03-19T16:08:53.950Z,5.46
2023-03-19T16:11:28.865Z,5.45
2023-03-19T16:14:00.376Z,5.47
2023-03-19T16:16:30.872Z,5.49
2023-03-19T16:18:59.229Z,5.46
2023-03-19T16:21:39.459Z,5.44
2023-03-19T16:24:19.305Z,5.43
2023-03-19T16:26:47.710Z,5.42
2023-03-19T16:29:26.428Z,5.42
2023-03-19T16:32:14.471Z,5.43
2023-03-19T16:34:46.843Z,5.44
2023-03-19T16:37:27.409Z,5.41
2023-03-19T16:40:00.777Z,5.38
2023-03-19T16:42:40.740Z,5.39
2023-03-19T16:45:25.080Z,5.41
2023-03-19T16:47:54.974Z,5.40
2023-03-19T16:50:29.931Z,5.33
2023-03-19T16:52:58.973Z,5.36
2023-03-19T16:55:34.726Z,5.36
2023-03-19T16:58:14.524Z,5.36
2023-03-19T17:00:43.850Z,5.34
2023-03-19T17:03:17.042Z,5.33
2023-03-19T17:05:46.597Z,5.31
2023-03-19T17:08:17.136Z,5.31
2023-03-19T17:10:49.388Z,5.29
2023-03-19T17:13:30.722Z,5.26
2023-03-19T17:16:02.673Z,5.20
2023-03-19T17:18:36.222Z,5.17
2023-03-19T17:21:19.402Z,5.16
2023-03-19T17:23:47.987Z,5.14
2023-03-19T17:26:18.104Z,5.13
2023-03-19T17:28:48.441Z,5.12
2023-03-19T17:31:37.398Z,5.12
2023-03-19T17:34:18.204Z,5.11
2023-03-19T17:37:01.092Z,5.12
2023-03-19T17:39:30.214Z,5.10
2023-03-19T17:42:01.330Z,5.05
2023-03-19T17:44:29.904Z,5.04
2023-03-19T17:46:58.087Z,5.01
2023-03-19T17:49:32.758Z,4.99
2023-03-19T17:52:01.000Z,4.98
2023-03-19T17:54:29.373Z,5.00
2023-03-19T17:56:57.554Z,5.02
2023-03-19T17:59:25.941Z,5.02
2023-03-19T18:01:54.615Z,5.01
2023-03-19T18:04:23.347Z,4.99
2023-03-19T18:06:55.673Z,4.96
2023-03-19T18:09:27.092Z,4.97
2023-03-19T18:11:55.551Z,4.97
2023-03-19T18:14:23.821Z,4.99
2023-03-19T18:16:52.145Z,4.96
2023-03-19T18:19:31.632Z,4.95
2023-03-19T18:22:00.014Z,4.93
2023-03-19T18:24:28.402Z,4.93
2023-03-19T18:26:56.681Z,4.94
2023-03-19T18:29:24.962Z,4.93
2023-03-19T18:31:53.619Z,4.94
2023-03-19T18:34:21.930Z,4.96
2023-03-19T18:36:51.134Z,4.96
2023-03-19T18:39:19.347Z,4.95
2023-03-19T18:41:47.604Z,4.95
2023-03-19T18:44:16.640Z,4.94
2023-03-19T18:46:45.907Z,4.92
2023-03-19T18:49:23.590Z,4.93
2023-03-19T18:52:02.271Z,4.95
2023-03-19T18:54:32.362Z,4.94
2023-03-19T18:57:05.858Z,4.94
2023-03-19T18:59:34.353Z,4.97
2023-03-19T19:02:25.267Z,4.95
2023-03-19T19:04:53.599Z,4.98
2023-03-19T19:07:21.879Z,4.99
2023-03-19T19:09:50.156Z,5.00
2023-03-19T19:12:19.256Z,4.99
2023-03-19T19:14:47.563Z,4.98
2023-03-19T19:17:18.076Z,4.96
2023-03-19T19:19:47.303Z,4.93
2023-03-19T19:22:18.659Z,4.94
2023-03-19T19:24:46.901Z,4.94
2023-03-19T19:27:20.601Z,4.94
2023-03-19T19:29:51.381Z,4.95
2023-03-19T19:32:25.076Z,4.95
2023-03-19T19:34:53.656Z,4.95
2023-03-19T19:37:29.774Z,4.95
2023-03-19T19:39:58.280Z,4.97
2023-03-19T19:42:26.767Z,5.00
2023-03-19T19:44:55.774Z,5.04
2023-03-19T19:47:24.158Z,5.06
2023-03-19T19:49:58.317Z,5.06
2023-03-19T19:52:28.325Z,5.03
2023-03-19T19:54:56.620Z,5.01
2023-03-19T19:57:25.732Z,5.00
2023-03-19T19:59:54.470Z,5.00
2023-03-19T20:02:31.393Z,5.00
2023-03-19T20:05:01.260Z,5.01
2023-03-19T20:07:30.178Z,5.02
2023-03-19T20:10:04.674Z,5.01
2023-03-19T20:12:35.040Z,5.01
2023-03-19T20:15:03.416Z,5.02
2023-03-19T20:17:33.078Z,5.04
2023-03-19T20:20:01.410Z,5.07
2023-03-19T20:22:37.129Z,5.07
2023-03-19T20:25:07.676Z,5.07
2023-03-19T20:27:36.044Z,5.07
2023-03-19T20:30:05.649Z,5.04
2023-03-19T20:32:36.235Z,5.01
2023-03-19T20:35:23.140Z,5.03
2023-03-19T20:37:52.507Z,4.98
2023-03-19T20:40:21.905Z,4.96
2023-03-19T20:42:51.866Z,4.95
2023-03-19T20:45:24.941Z,4.78
2023-03-19T20:47:53.396Z,4.78
2023-03-19T20:50:24.852Z,4.82
2023-03-19T20:52:55.484Z,4.73
2023-03-19T20:55:28.061Z,4.73
2023-03-19T20:57:57.366Z,4.76
2023-03-19T21:00:28.248Z,4.76
2023-03-19T21:02:57.370Z,4.75
2023-03-19T21:05:36.663Z,4.74
2023-03-19T21:08:16.481Z,4.72
2023-03-19T21:10:44.607Z,4.72
2023-03-19T21:13:15.811Z,4.70
2023-03-19T21:15:46.427Z,4.59
2023-03-19T21:18:15.128Z,4.57
2023-03-19T21:20:46.236Z,4.58
2023-03-19T21:23:26.705Z,4.58
2023-03-19T21:25:54.813Z,4.55
2023-03-19T21:28:37.373Z,4.48
2023-03-19T21:31:06.509Z,4.45
2023-03-19T21:33:37.220Z,4.50
2023-03-19T21:36:06.620Z,4.51
2023-03-19T21:38:38.210Z,4.46
2023-03-19T21:41:11.438Z,4.44
2023-03-19T21:43:42.005Z,4.48
2023-03-19T21:46:24.658Z,4.46
2023-03-19T21:48:54.701Z,4.34
2023-03-19T21:51:25.287Z,4.34
2023-03-19T21:53:53.495Z,4.38
2023-03-19T21:56:32.470Z,4.39
2023-03-19T21:59:02.440Z,4.38
2023-03-19T22:01:31.247Z,4.30
2023-03-19T22:03:59.474Z,4.33
2023-03-19T22:06:28.141Z,4.35
2023-03-19T22:08:56.728Z,4.34
2023-03-19T22:11:36.019Z,4.36
2023-03-19T22:14:18.023Z,4.35
2023-03-19T22:16:47.257Z,4.36
2023-03-19T22:19:16.416Z,4.38
2023-03-19T22:21:44.553Z,4.38
2023-03-19T22:24:12.878Z,4.40
2023-03-19T22:26:42.282Z,4.42
2023-03-19T22:29:31.236Z,4.42
2023-03-19T22:31:59.671Z,4.41
2023-03-19T22:34:28.184Z,4.42
2023-03-19T22:36:56.596Z,4.38
2023-03-19T22:39:25.131Z,4.30
2023-03-19T22:41:55.937Z,4.25
2023-03-19T22:44:27.200Z,4.25
2023-03-19T22:46:56.368Z,4.29
2023-03-19T22:49:24.974Z,4.28
2023-03-19T22:51:53.479Z,4.32
2023-03-19T22:54:21.930Z,4.33
2023-03-19T22:56:50.207Z,4.34
2023-03-19T22:59:21.661Z,4.34
2023-03-19T23:01:50.663Z,4.34
2023-03-19T23:04:20.746Z,4.32
2023-03-19T23:06:52.355Z,4.34
2023-03-19T23:09:22.406Z,4.32
2023-03-19T23:11:50.987Z,4.30
2023-03-19T23:14:29.104Z,4.32
2023-03-19T23:17:04.031Z,4.33
2023-03-19T23:19:36.973Z,4.32
2023-03-19T23:22:06.319Z,4.31
2023-03-19T23:24:35.300Z,4.30
2023-03-19T23:27:04.369Z,4.28
2023-03-19T23:29:37.251Z,4.27
2023-03-19T23:32:12.749Z,4.26
2023-03-19T23:34:55.905Z,4.24
2023-03-19T23:37:26.282Z,4.22
2023-03-19T23:39:56.516Z,4.18
2023-03-19T23:42:28.384Z,4.15
2023-03-19T23:44:58.679Z,4.11
2023-03-19T23:47:27.149Z,4.08
2023-03-19T23:49:55.205Z,3.98
2023-03-19T23:52:23.293Z,3.90
2023-03-19T23:54:52.585Z,3.93
2023-03-19T23:57:21.706Z,3.94
2023-03-19T23:59:50.092Z,3.93
